Time;durP1;ratioP1;P1;durP2;ratioP2;P2;SDS_P1;SDS_P2;PMS_P1;PMS_P2;Temp;Humidity;BMP_temperature;BMP_pressure;BME280_temperature;BME280_humidity;BME280_pressure;Samples;Min_cycle;Max_cycle;Signal;HPM_P1;HPM_P2
2024/01/06 00:01:26;;;;;;;0.00;0.00;;;10.10;78.50;;;;;;5086146;28;20217;-26
2024/01/06 00:03:56;;;;;;;0.00;0.00;;;10.10;78.40;;;;;;5072125;28;20223;-26
2024/01/06 00:06:24;;;;;;;0.00;0.00;;;10.10;78.50;;;;;;5082722;28;20283;-26
2024/01/06 00:08:53;;;;;;;0.00;0.00;;;10.10;78.50;;;;;;5070788;28;20693;-26
2024/01/06 00:11:22;;;;;;;0.00;0.00;;;10.10;78.50;;;;;;5051983;28;20310;-26
2024/01/06 00:13:51;;;;;;;0.00;0.00;;;10.10;78.40;;;;;;5081153;28;20199;-26
2024/01/06 00:16:22;;;;;;;0.00;0.00;;;10.10;78.50;;;;;;5087714;28;20219;-26
2024/01/06 00:18:55;;;;;;;0.00;0.00;;;10.10;78.50;;;;;;5084283;28;20199;-26
2024/01/06 00:21:22;;;;;;;0.00;0.00;;;10.10;78.50;;;;;;5088192;28;20209;-26
2024/01/06 00:23:50;;;;;;;0.00;0.00;;;10.00;78.50;;;;;;5088282;28;20985;-26
2024/01/06 00:26:21;;;;;;;0.00;0.00;;;10.00;78.60;;;;;;5087556;28;20215;-26
2024/01/06 00:28:49;;;;;;;0.00;0.00;;;10.00;78.50;;;;;;5083577;28;20241;-26
2024/01/06 00:31:20;;;;;;;0.00;0.00;;;10.00;78.60;;;;;;5074061;28;20214;-26
2024/01/06 00:33:50;;;;;;;0.00;0.00;;;10.00;78.50;;;;;;5082420;28;20880;-26
2024/01/06 00:36:20;;;;;;;0.00;0.00;;;10.00;78.60;;;;;;5086402;28;20233;-26
2024/01/06 00:38:47;;;;;;;0.00;0.00;;;10.00;78.60;;;;;;5065911;28;20203;-26
2024/01/06 00:41:15;;;;;;;0.00;0.00;;;10.00;78.60;;;;;;5071979;28;20642;-26
2024/01/06 00:43:47;;;;;;;0.00;0.00;;;10.00;78.60;;;;;;5068779;28;20301;-26
2024/01/06 00:46:17;;;;;;;0.00;0.00;;;10.00;78.50;;;;;;5083796;28;20209;-25
2024/01/06 00:48:46;;;;;;;0.00;0.00;;;10.00;78.60;;;;;;5079942;28;20203;-26
2024/01/06 00:51:14;;;;;;;0.00;0.00;;;10.00;78.70;;;;;;5086863;28;20230;-25
2024/01/06 00:53:49;;;;;;;0.00;0.00;;;10.00;78.70;;;;;;5081421;28;20203;-26
2024/01/06 00:56:16;;;;;;;0.00;0.00;;;10.00;78.70;;;;;;5085466;28;20281;-27
2024/01/06 00:58:48;;;;;;;0.00;0.00;;;10.00;78.70;;;;;;5084850;28;20202;-26
2024/01/06 01:01:19;;;;;;;0.00;0.00;;;10.00;78.70;;;;;;5086125;28;20227;-25
2024/01/06 01:03:49;;;;;;;0.00;0.00;;;10.00;78.70;;;;;;5085863;28;20708;-26
2024/01/06 01:06:19;;;;;;;0.00;0.00;;;10.00;78.70;;;;;;5085929;28;20238;-26
2024/01/06 01:08:46;;;;;;;0.00;0.00;;;10.00;78.70;;;;;;5079805;28;20718;-26
2024/01/06 01:11:14;;;;;;;0.00;0.00;;;10.00;78.80;;;;;;5082197;28;20210;-26
2024/01/06 01:13:43;;;;;;;0.00;0.00;;;10.00;78.80;;;;;;5087354;28;20202;-26
2024/01/06 01:16:10;;;;;;;0.00;0.00;;;10.00;78.80;;;;;;5086480;28;20203;-26
2024/01/06 01:18:40;;;;;;;0.00;0.00;;;10.00;78.80;;;;;;5087077;28;20826;-26
2024/01/06 01:21:10;;;;;;;0.00;0.00;;;10.10;78.90;;;;;;5086349;28;20626;-26
2024/01/06 01:23:37;;;;;;;0.00;0.00;;;10.10;78.90;;;;;;5086405;28;20222;-26
2024/01/06 01:26:10;;;;;;;0.00;0.00;;;10.10;78.90;;;;;;5086797;28;20191;-26
2024/01/06 01:28:37;;;;;;;0.00;0.00;;;10.00;78.70;;;;;;5086613;28;20230;-27
2024/01/06 01:31:04;;;;;;;0.00;0.00;;;10.00;79.00;;;;;;5085367;28;20202;-26
2024/01/06 01:33:34;;;;;;;0.00;0.00;;;10.10;78.80;;;;;;5071185;28;20607;-26
2024/01/06 01:36:05;;;;;;;0.00;0.00;;;10.00;78.70;;;;;;5075375;28;20677;-26
2024/01/06 01:38:33;;;;;;;0.00;0.00;;;10.00;78.80;;;;;;5083198;28;20203;-26
2024/01/06 01:41:03;;;;;;;0.00;0.00;;;10.00;78.70;;;;;;5085154;28;20679;-26
2024/01/06 01:43:32;;;;;;;0.00;0.00;;;10.00;78.80;;;;;;5067265;28;20235;-26
2024/01/06 01:46:05;;;;;;;0.00;0.00;;;10.00;78.80;;;;;;5072726;28;20226;-26
2024/01/06 01:48:34;;;;;;;0.00;0.00;;;10.00;78.80;;;;;;5081489;28;20580;-26
2024/01/06 01:51:05;;;;;;;0.00;0.00;;;10.00;78.90;;;;;;5064988;28;20211;-26
2024/01/06 01:53:34;;;;;;;0.00;0.00;;;10.00;78.90;;;;;;5050654;28;20574;-26
2024/01/06 01:56:04;;;;;;;0.00;0.00;;;10.00;79.00;;;;;;5074744;28;20242;-26
2024/01/06 01:58:31;;;;;;;0.00;0.00;;;10.00;79.00;;;;;;5069325;28;20223;-26
2024/01/06 02:01:01;;;;;;;0.00;0.00;;;10.00;79.00;;;;;;5070763;28;20198;-26
2024/01/06 02:03:30;;;;;;;0.00;0.00;;;10.00;79.00;;;;;;5076180;28;20216;-26
2024/01/06 02:06:00;;;;;;;0.00;0.00;;;10.00;79.00;;;;;;5083848;28;20237;-26
2024/01/06 02:08:27;;;;;;;0.00;0.00;;;10.00;79.00;;;;;;5079845;28;20200;-26
2024/01/06 02:10:58;;;;;;;0.00;0.00;;;10.00;79.00;;;;;;5066556;28;20208;-26
2024/01/06 02:13:33;;;;;;;0.00;0.00;;;10.00;78.90;;;;;;5070763;28;20288;-26
2024/01/06 02:16:04;;;;;;;0.00;0.00;;;10.00;79.00;;;;;;5072409;28;20206;-26
2024/01/06 02:18:32;;;;;;;0.00;0.00;;;10.00;79.00;;;;;;5073968;28;20654;-26
2024/01/06 02:21:01;;;;;;;0.00;0.00;;;10.00;79.00;;;;;;5073368;28;20289;-26
2024/01/06 02:23:30;;;;;;;0.00;0.00;;;10.00;79.00;;;;;;5068568;28;20203;-26
2024/01/06 02:25:58;;;;;;;0.00;0.00;;;10.00;79.00;;;;;;5075592;28;20202;-26
2024/01/06 02:28:25;;;;;;;0.00;0.00;;;10.00;79.00;;;;;;5078681;28;20282;-26
2024/01/06 02:30:52;;;;;;;0.00;0.00;;;10.00;79.00;;;;;;5076322;28;20217;-26
2024/01/06 02:33:20;;;;;;;0.00;0.00;;;10.00;79.00;;;;;;5083987;28;20210;-26
2024/01/06 02:35:47;;;;;;;0.00;0.00;;;10.00;79.00;;;;;;5081823;28;20207;-26
2024/01/06 02:38:14;;;;;;;0.00;0.00;;;10.00;79.10;;;;;;5081715;28;20222;-26
2024/01/06 02:40:44;;;;;;;0.00;0.00;;;10.00;79.10;;;;;;5062742;28;20614;-26
2024/01/06 02:43:11;;;;;;;0.00;0.00;;;10.00;79.20;;;;;;5078223;28;20210;-26
2024/01/06 02:45:38;;;;;;;0.00;0.00;;;10.00;79.30;;;;;;5082663;28;20218;-27
2024/01/06 02:48:05;;;;;;;0.00;0.00;;;10.00;79.20;;;;;;5073642;28;20203;-26
2024/01/06 02:50:35;;;;;;;0.00;0.00;;;10.00;79.20;;;;;;5063135;28;20196;-26
2024/01/06 02:53:07;;;;;;;0.00;0.00;;;10.00;79.30;;;;;;5053677;28;20207;-26
2024/01/06 02:55:37;;;;;;;0.00;0.00;;;10.00;79.20;;;;;;5079554;28;20207;-26
2024/01/06 02:58:04;;;;;;;0.00;0.00;;;10.10;79.30;;;;;;5078300;28;20192;-26
2024/01/06 03:00:33;;;;;;;0.00;0.00;;;10.10;79.40;;;;;;5082263;28;20195;-26
2024/01/06 03:03:03;;;;;;;0.00;0.00;;;10.10;79.40;;;;;;5087059;28;20209;-26
2024/01/06 03:05:36;;;;;;;0.00;0.00;;;10.10;79.40;;;;;;5085739;28;20291;-26
2024/01/06 03:08:06;;;;;;;0.00;0.00;;;10.10;79.30;;;;;;5086878;28;20198;-26
2024/01/06 03:10:36;;;;;;;0.00;0.00;;;10.10;79.30;;;;;;5086901;28;20734;-26
2024/01/06 03:13:06;;;;;;;0.00;0.00;;;10.10;79.40;;;;;;5085157;28;20201;-26
2024/01/06 03:15:35;;;;;;;0.00;0.00;;;10.10;79.20;;;;;;5068478;28;20214;-26
2024/01/06 03:18:03;;;;;;;0.00;0.00;;;10.10;79.30;;;;;;5084889;28;20207;-26
2024/01/06 03:20:30;;;;;;;0.00;0.00;;;10.10;79.30;;;;;;5086129;28;20290;-27
2024/01/06 03:22:58;;;;;;;0.00;0.00;;;10.10;79.30;;;;;;5083490;28;20203;-26
2024/01/06 03:25:25;;;;;;;0.00;0.00;;;10.10;79.30;;;;;;5083979;28;20461;-26
2024/01/06 03:27:53;;;;;;;0.00;0.00;;;10.10;79.20;;;;;;5082694;28;20676;-26
2024/01/06 03:30:22;;;;;;;0.00;0.00;;;10.10;79.30;;;;;;5072446;28;20487;-27
2024/01/06 03:32:52;;;;;;;0.00;0.00;;;10.00;79.30;;;;;;5061620;28;20204;-26
2024/01/06 03:35:23;;;;;;;0.00;0.00;;;10.00;79.30;;;;;;5062622;28;20223;-26
2024/01/06 03:37:51;;;;;;;0.00;0.00;;;10.10;79.40;;;;;;5066717;28;20307;-26
2024/01/06 03:40:18;;;;;;;0.00;0.00;;;10.10;79.40;;;;;;5074443;28;20741;-26
2024/01/06 03:42:45;;;;;;;0.00;0.00;;;10.10;79.50;;;;;;5083660;28;20563;-26
2024/01/06 03:45:13;;;;;;;0.00;0.00;;;10.00;79.30;;;;;;5078270;28;20531;-27
2024/01/06 03:47:44;;;;;;;0.00;0.00;;;10.10;79.40;;;;;;5071953;28;20203;-26
2024/01/06 03:50:12;;;;;;;0.00;0.00;;;10.10;79.30;;;;;;5077459;28;20207;-26
2024/01/06 03:52:42;;;;;;;0.00;0.00;;;10.00;79.30;;;;;;5079811;28;20254;-27
2024/01/06 03:55:09;;;;;;;0.00;0.00;;;10.00;79.30;;;;;;5087654;28;20194;-27
2024/01/06 03:57:36;;;;;;;0.00;0.00;;;10.00;79.30;;;;;;5070873;28;20219;-27
2024/01/06 04:00:05;;;;;;;0.00;0.00;;;10.00;79.30;;;;;;5074302;28;20210;-27
2024/01/06 04:02:32;;;;;;;0.00;0.00;;;10.00;79.30;;;;;;5089911;28;20210;-26
2024/01/06 04:04:59;;;;;;;0.00;0.00;;;10.00;79.30;;;;;;5088166;28;20306;-27
2024/01/06 04:07:28;;;;;;;0.00;0.00;;;10.00;79.40;;;;;;5069759;28;20211;-26
2024/01/06 04:09:56;;;;;;;0.00;0.00;;;10.00;79.30;;;;;;5071790;28;20768;-27
2024/01/06 04:12:24;;;;;;;0.00;0.00;;;10.00;79.20;;;;;;5077255;28;20218;-27
2024/01/06 04:14:51;;;;;;;0.00;0.00;;;10.00;79.20;;;;;;5082161;28;20669;-27
2024/01/06 04:17:19;;;;;;;0.00;0.00;;;9.90;79.00;;;;;;5074042;28;20260;-27
2024/01/06 04:19:48;;;;;;;0.00;0.00;;;9.90;78.90;;;;;;5072245;28;20207;-26
2024/01/06 04:22:18;;;;;;;0.00;0.00;;;9.90;79.80;;;;;;5079369;28;20215;-26
2024/01/06 04:24:50;;;;;;;0.00;0.00;;;9.80;79.00;;;;;;5084838;28;20673;-26
2024/01/06 04:27:20;;;;;;;0.00;0.00;;;9.80;79.00;;;;;;5085381;28;20988;-26
2024/01/06 04:29:47;;;;;;;0.00;0.00;;;9.70;78.90;;;;;;5065243;28;20740;-26
2024/01/06 04:32:16;;;;;;;0.00;0.00;;;9.70;78.90;;;;;;5074430;28;20211;-26
2024/01/06 04:34:44;;;;;;;0.00;0.00;;;9.70;78.90;;;;;;5067310;28;20203;-26
2024/01/06 04:37:11;;;;;;;0.00;0.00;;;9.70;79.00;;;;;;5066767;28;20215;-26
2024/01/06 04:39:38;;;;;;;0.00;0.00;;;9.60;79.00;;;;;;5067964;28;20705;-26
2024/01/06 04:42:08;;;;;;;0.00;0.00;;;9.60;79.00;;;;;;5083537;28;20703;-26
2024/01/06 04:44:39;;;;;;;0.00;0.00;;;9.60;79.10;;;;;;5068684;28;20219;-26
2024/01/06 04:47:09;;;;;;;0.00;0.00;;;9.60;79.10;;;;;;5070391;28;20291;-26
2024/01/06 04:49:38;;;;;;;0.00;0.00;;;9.60;79.20;;;;;;5069982;28;20327;-26
2024/01/06 04:52:06;;;;;;;0.00;0.00;;;9.60;79.20;;;;;;5078152;28;20688;-26
2024/01/06 04:54:33;;;;;;;0.00;0.00;;;9.60;79.10;;;;;;5086165;28;20215;-26
2024/01/06 04:57:00;;;;;;;0.00;0.00;;;9.60;79.20;;;;;;5079362;28;20218;-26
2024/01/06 04:59:30;;;;;;;0.00;0.00;;;9.60;79.20;;;;;;5086304;28;20286;-26
2024/01/06 05:02:03;;;;;;;0.00;0.00;;;9.60;79.30;;;;;;5085401;28;20206;-26
2024/01/06 05:04:32;;;;;;;0.00;0.00;;;9.60;79.40;;;;;;5085539;28;20612;-26
2024/01/06 05:07:01;;;;;;;0.00;0.00;;;9.60;79.40;;;;;;5085885;28;20226;-26
2024/01/06 05:09:29;;;;;;;0.00;0.00;;;9.60;79.30;;;;;;5087883;28;20194;-26
2024/01/06 05:11:58;;;;;;;0.00;0.00;;;9.60;79.30;;;;;;5086901;28;20286;-26
2024/01/06 05:14:25;;;;;;;0.00;0.00;;;9.60;79.30;;;;;;5088674;28;20969;-26
2024/01/06 05:16:55;;;;;;;0.00;0.00;;;9.60;79.20;;;;;;5068987;28;20213;-26
2024/01/06 05:19:24;;;;;;;0.00;0.00;;;9.50;78.90;;;;;;5085849;28;20207;-26
2024/01/06 05:21:57;;;;;;;0.00;0.00;;;9.50;79.00;;;;;;5065583;28;20196;-26
2024/01/06 05:24:29;;;;;;;0.00;0.00;;;9.50;79.20;;;;;;5064425;28;20230;-26
2024/01/06 05:26:58;;;;;;;0.00;0.00;;;9.50;79.20;;;;;;5047883;28;20195;-26
2024/01/06 05:29:28;;;;;;;0.00;0.00;;;9.50;79.20;;;;;;5064203;28;20191;-26
2024/01/06 05:31:57;;;;;;;0.00;0.00;;;9.40;79.10;;;;;;5065883;28;20686;-26
2024/01/06 05:34:25;;;;;;;0.00;0.00;;;9.40;79.20;;;;;;5082275;28;20248;-26
2024/01/06 05:36:54;;;;;;;0.00;0.00;;;9.40;79.20;;;;;;5083116;28;20551;-26
2024/01/06 05:39:25;;;;;;;0.00;0.00;;;9.40;79.20;;;;;;5079654;28;20214;-26
2024/01/06 05:41:52;;;;;;;0.00;0.00;;;9.40;79.10;;;;;;5082785;28;20299;-26
2024/01/06 05:44:21;;;;;;;0.00;0.00;;;9.40;79.10;;;;;;5079351;28;20208;-25
2024/01/06 05:46:49;;;;;;;0.00;0.00;;;9.40;79.10;;;;;;5080869;28;20191;-26
2024/01/06 05:49:18;;;;;;;0.00;0.00;;;9.40;79.80;;;;;;5086793;28;20222;-27
2024/01/06 05:51:51;;;;;;;0.00;0.00;;;9.30;79.20;;;;;;5086321;28;20211;-26
2024/01/06 05:54:20;;;;;;;0.00;0.00;;;9.30;79.00;;;;;;5086142;28;20197;-26
2024/01/06 05:56:50;;;;;;;0.00;0.00;;;9.30;79.10;;;;;;5088535;28;20502;-26
2024/01/06 05:59:22;;;;;;;0.00;0.00;;;9.30;79.00;;;;;;5086081;28;20218;-26
2024/01/06 06:01:54;;;;;;;0.00;0.00;;;9.30;79.00;;;;;;5071000;28;20209;-26
2024/01/06 06:04:24;;;;;;;0.00;0.00;;;9.20;79.00;;;;;;5080016;28;20212;-26
2024/01/06 06:06:56;;;;;;;0.00;0.00;;;9.20;79.00;;;;;;5074513;28;20315;-26
2024/01/06 06:09:30;;;;;;;0.00;0.00;;;9.20;79.20;;;;;;5084545;28;20689;-26
2024/01/06 06:11:57;;;;;;;0.00;0.00;;;9.10;79.20;;;;;;5077561;28;20309;-26
2024/01/06 06:14:25;;;;;;;0.00;0.00;;;9.10;79.20;;;;;;5076446;28;20219;-26
2024/01/06 06:17:00;;;;;;;0.00;0.00;;;9.10;79.10;;;;;;5068741;28;20650;-26
2024/01/06 06:19:32;;;;;;;0.00;0.00;;;9.10;79.10;;;;;;5082505;28;20240;-26
2024/01/06 06:22:01;;;;;;;0.00;0.00;;;9.10;79.10;;;;;;5078055;28;20199;-26
2024/01/06 06:24:33;;;;;;;0.00;0.00;;;9.10;79.20;;;;;;5083073;28;20206;-26
2024/01/06 06:27:01;;;;;;;0.00;0.00;;;9.10;79.10;;;;;;5081955;28;20636;-26
2024/01/06 06:29:28;;;;;;;0.00;0.00;;;9.00;79.00;;;;;;5078772;28;20288;-26
2024/01/06 06:31:58;;;;;;;0.00;0.00;;;9.00;79.00;;;;;;5065234;28;20279;-26
2024/01/06 06:34:27;;;;;;;0.00;0.00;;;9.00;78.90;;;;;;5073090;28;20221;-26
2024/01/06 06:36:55;;;;;;;0.00;0.00;;;8.90;78.70;;;;;;5077444;28;20210;-26
2024/01/06 06:39:22;;;;;;;0.00;0.00;;;8.90;78.70;;;;;;5080486;28;20289;-26
2024/01/06 06:41:51;;;;;;;0.00;0.00;;;8.80;78.50;;;;;;5067812;28;20253;-25
2024/01/06 06:44:23;;;;;;;0.00;0.00;;;8.80;78.40;;;;;;5065866;28;20199;-26
2024/01/06 06:46:53;;;;;;;0.00;0.00;;;8.80;78.50;;;;;;5072318;28;20207;-26
2024/01/06 06:49:23;;;;;;;0.00;0.00;;;8.70;78.50;;;;;;5081110;28;20273;-26
2024/01/06 06:51:53;;;;;;;0.00;0.00;;;8.70;78.60;;;;;;5073104;28;20296;-26
2024/01/06 06:54:23;;;;;;;0.00;0.00;;;8.70;78.50;;;;;;5069097;28;20196;-26
2024/01/06 06:56:50;;;;;;;0.00;0.00;;;8.60;78.50;;;;;;5086982;28;20233;-26
2024/01/06 06:59:17;;;;;;;0.00;0.00;;;8.60;78.60;;;;;;5083003;28;20691;-26
2024/01/06 07:01:45;;;;;;;0.00;0.00;;;8.60;78.60;;;;;;5079400;28;20202;-26
2024/01/06 07:04:14;;;;;;;0.00;0.00;;;8.60;78.60;;;;;;5079484;28;20208;-26
2024/01/06 07:06:44;;;;;;;0.00;0.00;;;8.60;78.70;;;;;;5080537;28;20888;-26
2024/01/06 07:09:11;;;;;;;0.00;0.00;;;8.60;78.70;;;;;;5080500;28;20221;-26
2024/01/06 07:11:41;;;;;;;0.00;0.00;;;8.50;78.50;;;;;;5082392;28;21189;-26
2024/01/06 07:14:12;;;;;;;0.00;0.00;;;8.50;78.40;;;;;;5077405;28;20716;-25
2024/01/06 07:16:42;;;;;;;0.00;0.00;;;8.50;78.40;;;;;;5084821;28;20195;-26
2024/01/06 07:19:17;;;;;;;0.00;0.00;;;8.40;78.30;;;;;;5083951;28;20721;-26
2024/01/06 07:21:49;;;;;;;0.00;0.00;;;8.40;78.30;;;;;;5079544;28;20201;-26
2024/01/06 07:24:16;;;;;;;0.00;0.00;;;8.40;78.40;;;;;;5084450;28;20208;-26
2024/01/06 07:26:44;;;;;;;0.00;0.00;;;8.30;78.40;;;;;;5081169;28;20742;-26
2024/01/06 07:29:11;;;;;;;0.00;0.00;;;8.30;78.40;;;;;;5075261;28;20299;-26
2024/01/06 07:31:38;;;;;;;0.00;0.00;;;8.30;78.40;;;;;;5089908;28;20213;-26
2024/01/06 07:34:08;;;;;;;0.00;0.00;;;8.30;78.50;;;;;;5071777;28;20209;-26
2024/01/06 07:36:38;;;;;;;0.00;0.00;;;8.20;78.40;;;;;;5082875;28;20297;-26
2024/01/06 07:39:10;;;;;;;0.00;0.00;;;8.20;78.30;;;;;;5074742;28;20199;-26
2024/01/06 07:41:39;;;;;;;0.00;0.00;;;8.20;78.40;;;;;;5066060;28;20261;-26
2024/01/06 07:44:06;;;;;;;0.00;0.00;;;8.20;78.50;;;;;;5052601;28;20198;-26
2024/01/06 07:46:35;;;;;;;0.00;0.00;;;8.20;78.60;;;;;;5087127;28;20610;-26
2024/01/06 07:49:04;;;;;;;0.00;0.00;;;8.20;78.70;;;;;;5089276;28;20813;-26
2024/01/06 07:51:32;;;;;;;0.00;0.00;;;8.20;78.70;;;;;;5089317;28;20740;-26
2024/01/06 07:53:59;;;;;;;0.00;0.00;;;8.20;78.70;;;;;;5088230;28;20229;-26
2024/01/06 07:56:27;;;;;;;0.00;0.00;;;8.20;78.70;;;;;;5086661;28;20202;-26
2024/01/06 07:58:54;;;;;;;0.00;0.00;;;8.20;78.70;;;;;;5082877;28;20198;-26
2024/01/06 08:01:24;;;;;;;0.00;0.00;;;8.20;78.70;;;;;;5078612;28;20637;-25
2024/01/06 08:03:53;;;;;;;0.00;0.00;;;8.20;78.90;;;;;;5068081;28;20269;-26
2024/01/06 08:06:21;;;;;;;0.00;0.00;;;8.20;78.80;;;;;;5075495;28;20307;-26
2024/01/06 08:08:51;;;;;;;0.00;0.00;;;8.20;78.70;;;;;;5077662;28;20209;-26
2024/01/06 08:11:20;;;;;;;0.00;0.00;;;8.20;78.60;;;;;;5088068;28;20202;-26
2024/01/06 08:13:48;;;;;;;0.00;0.00;;;8.20;78.60;;;;;;5087986;28;20207;-26
2024/01/06 08:16:15;;;;;;;0.00;0.00;;;8.10;78.60;;;;;;5084144;28;20198;-26
2024/01/06 08:18:42;;;;;;;0.00;0.00;;;8.10;78.60;;;;;;5080922;28;20683;-26
2024/01/06 08:21:10;;;;;;;0.00;0.00;;;8.10;78.70;;;;;;5088437;28;20207;-26
2024/01/06 08:23:39;;;;;;;0.00;0.00;;;8.10;78.80;;;;;;5089328;28;20558;-26
2024/01/06 08:26:07;;;;;;;0.00;0.00;;;8.10;78.80;;;;;;5089196;28;20207;-26
2024/01/06 08:28:39;;;;;;;0.00;0.00;;;8.10;78.80;;;;;;5078998;28;20844;-26
2024/01/06 08:31:06;;;;;;;0.00;0.00;;;8.10;78.80;;;;;;5055179;28;20197;-26
2024/01/06 08:33:36;;;;;;;0.00;0.00;;;8.10;78.80;;;;;;5087250;28;20556;-26
2024/01/06 08:36:06;;;;;;;0.00;0.00;;;8.10;78.80;;;;;;5089008;28;20207;-26
2024/01/06 08:38:36;;;;;;;0.00;0.00;;;8.10;78.70;;;;;;5089352;28;20731;-26
2024/01/06 08:41:03;;;;;;;0.00;0.00;;;8.10;78.70;;;;;;5087526;28;20203;-26
2024/01/06 08:43:30;;;;;;;0.00;0.00;;;8.10;78.70;;;;;;5088056;28;20206;-26
2024/01/06 08:46:00;;;;;;;0.00;0.00;;;8.10;78.70;;;;;;5088644;28;20284;-26
2024/01/06 08:48:32;;;;;;;0.00;0.00;;;8.10;78.70;;;;;;5087961;28;20282;-26
2024/01/06 08:51:07;;;;;;;0.00;0.00;;;8.10;78.70;;;;;;5089849;28;20198;-26
2024/01/06 08:53:34;;;;;;;0.00;0.00;;;8.00;78.60;;;;;;5088190;28;20662;-26
2024/01/06 08:56:03;;;;;;;0.00;0.00;;;8.10;78.70;;;;;;5082087;28;20223;-26
2024/01/06 08:58:31;;;;;;;0.00;0.00;;;8.10;78.80;;;;;;5087513;28;20798;-26
2024/01/06 09:01:00;;;;;;;0.00;0.00;;;8.10;78.80;;;;;;5089817;28;20343;-26
2024/01/06 09:03:28;;;;;;;0.00;0.00;;;8.10;78.80;;;;;;5054451;28;20211;-26
2024/01/06 09:05:57;;;;;;;0.00;0.00;;;8.10;78.50;;;;;;5077520;28;20241;-26
2024/01/06 09:08:31;;;;;;;0.00;0.00;;;8.10;78.40;;;;;;5086340;28;20191;-26
2024/01/06 09:11:01;;;;;;;0.00;0.00;;;8.00;78.40;;;;;;5072446;28;20199;-26
2024/01/06 09:13:32;;;;;;;0.00;0.00;;;8.00;78.30;;;;;;5071650;28;20290;-26
2024/01/06 09:16:00;;;;;;;0.00;0.00;;;8.00;78.40;;;;;;5084776;28;20231;-26
2024/01/06 09:18:31;;;;;;;0.00;0.00;;;8.00;78.50;;;;;;5082650;28;20203;-26
2024/01/06 09:21:04;;;;;;;0.00;0.00;;;8.00;78.60;;;;;;5080725;28;20226;-26
2024/01/06 09:23:31;;;;;;;0.00;0.00;;;8.00;78.60;;;;;;5082121;28;20257;-26
2024/01/06 09:25:59;;;;;;;0.00;0.00;;;8.00;78.60;;;;;;5087338;28;20655;-26
2024/01/06 09:28:26;;;;;;;0.00;0.00;;;8.00;78.60;;;;;;5086057;28;20195;-26
2024/01/06 09:30:55;;;;;;;0.00;0.00;;;8.00;78.60;;;;;;5089261;28;20584;-26
2024/01/06 09:33:25;;;;;;;0.00;0.00;;;8.00;78.70;;;;;;5079981;28;20623;-26
2024/01/06 09:35:53;;;;;;;0.00;0.00;;;8.00;78.70;;;;;;5084067;28;20200;-26
2024/01/06 09:38:22;;;;;;;0.00;0.00;;;8.00;78.60;;;;;;5084230;28;20195;-26
2024/01/06 09:40:53;;;;;;;0.53;0.00;;;8.00;78.60;;;;;;5086204;28;20218;-26
2024/01/06 09:43:20;;;;;;;0.00;0.00;;;8.00;79.40;;;;;;5086864;28;20672;-26
2024/01/06 09:46:24;;;;;;;0.00;0.00;;;8.00;78.70;;;;;;5082997;28;20880;-26
2024/01/06 09:48:56;;;;;;;0.00;0.00;;;8.00;78.70;;;;;;5075115;28;20214;-26
2024/01/06 09:51:24;;;;;;;0.00;0.00;;;8.00;78.60;;;;;;5084808;28;20338;-26
2024/01/06 09:53:59;;;;;;;0.00;0.00;;;8.00;78.70;;;;;;5086717;28;20194;-26
2024/01/06 09:56:29;;;;;;;0.00;0.00;;;8.00;78.70;;;;;;5086242;28;20272;-27
2024/01/06 09:58:59;;;;;;;0.00;0.00;;;8.00;78.70;;;;;;5082600;28;20205;-27
2024/01/06 10:01:26;;;;;;;0.00;0.00;;;8.00;78.60;;;;;;5082495;28;20298;-27
2024/01/06 10:03:56;;;;;;;0.00;0.00;;;7.90;78.60;;;;;;5081277;28;20214;-27
2024/01/06 10:06:26;;;;;;;0.00;0.00;;;7.90;78.60;;;;;;5084497;28;20247;-26
2024/01/06 10:08:56;;;;;;;0.00;0.00;;;7.90;78.50;;;;;;5078629;28;20200;-26
2024/01/06 10:11:23;;;;;;;0.00;0.00;;;7.90;78.50;;;;;;5086968;28;20203;-26
2024/01/06 10:13:55;;;;;;;0.00;0.00;;;7.80;78.30;;;;;;5086059;28;20279;-26
2024/01/06 10:16:24;;;;;;;0.00;0.00;;;7.80;79.20;;;;;;5088501;28;20195;-26
2024/01/06 10:18:58;;;;;;;0.00;0.00;;;7.80;78.40;;;;;;5087731;28;20211;-26
2024/01/06 10:21:26;;;;;;;0.00;0.00;;;7.80;78.30;;;;;;5082855;28;20293;-26
2024/01/06 10:23:55;;;;;;;0.00;0.00;;;7.70;78.40;;;;;;5086418;28;20206;-26
2024/01/06 10:26:22;;;;;;;0.00;0.00;;;7.70;78.40;;;;;;5079999;28;20598;-26
2024/01/06 10:28:52;;;;;;;0.00;0.00;;;7.70;78.50;;;;;;5087284;28;20191;-26
2024/01/06 10:31:19;;;;;;;0.00;0.00;;;7.70;78.60;;;;;;5084845;28;20191;-26
2024/01/06 10:33:48;;;;;;;0.00;0.00;;;7.70;78.50;;;;;;5053139;28;20314;-32
2024/01/06 10:36:18;;;;;;;0.00;0.00;;;7.60;78.50;;;;;;5086238;28;20652;-27
2024/01/06 10:38:48;;;;;;;0.00;0.00;;;7.60;78.50;;;;;;5086533;28;20222;-26
2024/01/06 10:41:20;;;;;;;0.00;0.00;;;7.60;78.50;;;;;;5084868;28;20211;-27
2024/01/06 10:43:50;;;;;;;0.00;0.00;;;7.60;78.60;;;;;;5072717;28;20626;-26
2024/01/06 10:46:25;;;;;;;0.00;0.00;;;7.60;78.60;;;;;;5085359;28;20226;-27
2024/01/06 10:48:57;;;;;;;0.00;0.00;;;7.60;78.70;;;;;;5086976;28;20852;-26
2024/01/06 10:51:29;;;;;;;0.00;0.00;;;7.60;78.70;;;;;;5085582;28;20210;-26
2024/01/06 10:54:01;;;;;;;0.00;0.00;;;7.60;78.70;;;;;;5082537;28;20198;-26
2024/01/06 10:56:32;;;;;;;0.00;0.00;;;7.60;78.70;;;;;;5078531;28;20685;-26
2024/01/06 10:59:03;;;;;;;0.00;0.00;;;7.60;78.70;;;;;;5081129;28;20203;-26
2024/01/06 11:01:34;;;;;;;0.00;0.00;;;7.60;78.60;;;;;;5083526;28;20681;-26
2024/01/06 11:04:05;;;;;;;0.00;0.00;;;7.60;78.60;;;;;;5085023;28;20267;-27
2024/01/06 11:06:34;;;;;;;0.00;0.00;;;7.60;78.70;;;;;;5075905;28;20242;-27
2024/01/06 11:09:21;;;;;;;0.00;0.00;;;7.60;78.70;;;;;;5072155;28;20207;-26
2024/01/06 11:11:51;;;;;;;0.00;0.00;;;7.50;78.60;;;;;;5092038;28;20217;-27
2024/01/06 11:14:27;;;;;;;0.00;0.00;;;7.50;78.50;;;;;;5087266;28;20202;-26
2024/01/06 11:16:58;;;;;;;0.00;0.00;;;7.50;78.60;;;;;;5068198;28;20306;-26
2024/01/06 11:19:34;;;;;;;0.00;0.00;;;7.50;78.80;;;;;;5068164;28;20211;-27
2024/01/06 11:22:21;;;;;;;0.00;0.00;;;7.50;78.80;;;;;;5082186;28;20215;-26
2024/01/06 11:24:52;;;;;;;0.00;0.00;;;7.50;78.70;;;;;;5081485;28;20203;-26
2024/01/06 11:27:23;;;;;;;0.00;0.00;;;7.50;78.70;;;;;;5086349;28;20219;-42
2024/01/06 11:29:55;;;;;;;0.00;0.00;;;7.40;78.60;;;;;;5084213;28;20226;-43
2024/01/06 11:32:40;;;;;;;0.00;0.00;;;7.40;78.70;;;;;;5078753;28;20196;-45
2024/01/06 11:35:18;;;;;;;0.00;0.00;;;7.50;78.80;;;;;;5080887;28;20197;-43
2024/01/06 11:37:47;;;;;;;0.00;0.00;;;7.40;78.60;;;;;;5083070;28;20222;-43
2024/01/06 11:40:27;;;;;;;0.00;0.00;;;7.40;78.60;;;;;;5083684;28;20203;-43
2024/01/06 11:43:03;;;;;;;0.00;0.00;;;7.40;78.70;;;;;;5083566;28;20217;-42
2024/01/06 11:45:34;;;;;;;0.00;0.00;;;7.40;78.70;;;;;;5079373;28;20222;-42
2024/01/06 11:48:04;;;;;;;0.00;0.00;;;7.40;78.70;;;;;;5079403;28;20222;-43
2024/01/06 11:50:33;;;;;;;0.00;0.00;;;7.40;78.70;;;;;;5086392;28;20541;-42
2024/01/06 11:53:02;;;;;;;0.00;0.00;;;7.40;78.60;;;;;;5089332;28;20196;-43
2024/01/06 11:55:32;;;;;;;0.00;0.00;;;7.40;78.50;;;;;;5075189;28;20195;-43
2024/01/06 11:58:05;;;;;;;0.00;0.00;;;7.40;78.50;;;;;;5090375;28;20634;-42
2024/01/06 12:00:40;;;;;;;0.00;0.00;;;7.40;78.40;;;;;;5085306;28;20252;-42
2024/01/06 12:03:15;;;;;;;0.00;0.00;;;7.40;78.50;;;;;;5075286;28;20194;-44
2024/01/06 12:05:42;;;;;;;0.00;0.00;;;7.40;78.70;;;;;;5091615;28;20235;-42
2024/01/06 12:08:10;;;;;;;0.00;0.00;;;7.40;78.70;;;;;;5090470;28;20215;-43
2024/01/06 12:10:37;;;;;;;0.00;0.00;;;7.40;78.60;;;;;;5080141;28;20218;-42
2024/01/06 12:13:08;;;;;;;0.00;0.00;;;7.40;78.50;;;;;;5069955;28;20199;-42
2024/01/06 12:15:39;;;;;;;0.00;0.00;;;7.40;78.40;;;;;;5067510;28;20326;-43
2024/01/06 12:18:07;;;;;;;0.00;0.00;;;7.30;78.30;;;;;;5080754;28;20194;-42
2024/01/06 12:20:34;;;;;;;0.00;0.00;;;7.30;78.40;;;;;;5082731;28;20218;-42
2024/01/06 12:23:05;;;;;;;0.00;0.00;;;7.30;78.40;;;;;;5089676;28;20294;-42
2024/01/06 12:25:35;;;;;;;0.00;0.00;;;7.30;78.40;;;;;;5084463;28;20673;-42
2024/01/06 12:28:07;;;;;;;0.00;0.00;;;7.30;78.50;;;;;;5085482;28;20203;-43
2024/01/06 12:30:35;;;;;;;0.00;0.00;;;7.30;78.50;;;;;;5076012;28;20245;-42
2024/01/06 12:33:03;;;;;;;0.00;0.00;;;7.40;78.50;;;;;;5082586;28;20202;-42
2024/01/06 12:35:31;;;;;;;0.00;0.00;;;7.40;78.60;;;;;;5083494;28;20680;-43
2024/01/06 12:38:05;;;;;;;0.00;0.00;;;7.40;78.40;;;;;;5085026;28;20195;-42
2024/01/06 12:40:37;;;;;;;0.00;0.00;;;7.30;78.40;;;;;;5081553;28;20205;-43
2024/01/06 12:43:09;;;;;;;0.00;0.00;;;7.30;78.30;;;;;;5084230;28;20207;-43
2024/01/06 12:45:37;;;;;;;0.00;0.00;;;7.30;78.40;;;;;;5086835;28;20202;-41
2024/01/06 12:48:06;;;;;;;0.00;0.00;;;7.40;78.60;;;;;;5091329;28;20235;-42
2024/01/06 12:50:39;;;;;;;0.00;0.00;;;7.30;78.40;;;;;;5090760;28;20256;-42
2024/01/06 12:53:06;;;;;;;0.00;0.00;;;7.30;78.40;;;;;;5079575;28;20200;-43
2024/01/06 12:55:36;;;;;;;0.00;0.00;;;7.30;78.40;;;;;;5080091;28;20210;-43
2024/01/06 12:58:05;;;;;;;0.00;0.00;;;7.30;78.50;;;;;;5088879;28;20215;-42
2024/01/06 13:00:35;;;;;;;0.00;0.00;;;7.30;78.60;;;;;;5081911;28;20207;-44
2024/01/06 13:03:04;;;;;;;0.00;0.00;;;7.40;78.70;;;;;;5078466;28;20629;-42
2024/01/06 13:05:34;;;;;;;0.00;0.00;;;7.40;78.60;;;;;;5069445;28;20241;-43